createdAt,value
2019-05-17T00:00:19.713Z,0.00
2019-05-17T00:01:19.793Z,0.00
2019-05-17T00:02:19.704Z,0.00
2019-05-17T00:03:19.799Z,0.00
2019-05-17T00:04:19.665Z,0.00
2019-05-17T00:05:19.656Z,0.00
2019-05-17T00:06:19.677Z,0.00
2019-05-17T00:07:19.661Z,0.00
2019-05-17T00:08:31.148Z,0.00
2019-05-17T00:09:20.629Z,0.00
2019-05-17T00:10:19.668Z,0.00
2019-05-17T00:11:19.619Z,0.00
2019-05-17T00:12:19.599Z,0.00
2019-05-17T00:13:19.569Z,0.00
2019-05-17T00:14:19.640Z,0.00
2019-05-17T00:15:19.540Z,0.00
2019-05-17T00:16:19.531Z,0.00
2019-05-17T00:17:19.530Z,0.00
2019-05-17T00:18:19.612Z,0.00
2019-05-17T00:19:19.506Z,0.00
2019-05-17T00:20:20.573Z,0.00
2019-05-17T00:21:19.489Z,0.00
2019-05-17T00:22:19.533Z,0.00
2019-05-17T00:23:19.454Z,0.00
2019-05-17T00:24:19.515Z,0.00
2019-05-17T00:25:19.448Z,0.00
2019-05-17T00:26:19.456Z,0.00
2019-05-17T00:27:19.426Z,0.00
2019-05-17T00:28:19.499Z,0.00
2019-05-17T00:29:19.396Z,0.00
2019-05-17T00:30:19.428Z,0.00
2019-05-17T00:31:19.358Z,0.00
2019-05-17T00:32:19.378Z,0.00
2019-05-17T00:33:19.338Z,0.00
2019-05-17T00:34:20.419Z,0.00
2019-05-17T00:35:19.319Z,0.00
2019-05-17T00:36:19.341Z,0.00
2019-05-17T00:37:19.342Z,0.00
2019-05-17T00:38:19.281Z,0.00
2019-05-17T00:39:19.342Z,0.00
2019-05-17T00:40:19.273Z,0.00
2019-05-17T00:41:19.273Z,0.00
2019-05-17T00:42:19.254Z,0.00
2019-05-17T00:43:19.314Z,0.00
2019-05-17T00:44:19.235Z,0.00
2019-05-17T00:45:19.245Z,0.00
2019-05-17T00:46:19.206Z,0.00
2019-05-17T00:47:19.236Z,0.00
2019-05-17T00:48:19.245Z,0.00
2019-05-17T00:49:19.146Z,0.00
2019-05-17T00:50:19.187Z,0.00
2019-05-17T00:51:19.148Z,0.00
2019-05-17T00:52:19.158Z,0.00
2019-05-17T00:53:19.188Z,0.00
2019-05-17T00:54:19.109Z,0.00
2019-05-17T00:55:19.118Z,0.00
2019-05-17T00:56:19.079Z,0.00
2019-05-17T00:57:19.102Z,0.00
2019-05-17T00:58:19.072Z,0.00
2019-05-17T00:59:19.041Z,0.00
2019-05-17T01:00:19.074Z,0.00
2019-05-17T01:01:19.032Z,0.00
2019-05-17T01:02:19.054Z,0.00
2019-05-17T01:03:18.992Z,0.00
2019-05-17T01:04:18.984Z,0.00
2019-05-17T01:05:19.010Z,0.00
2019-05-17T01:06:18.964Z,0.00
2019-05-17T01:07:18.986Z,0.00
2019-05-17T01:08:18.949Z,0.00
2019-05-17T01:09:18.943Z,0.00
2019-05-17T01:10:18.927Z,0.00
2019-05-17T01:11:19.016Z,0.00
2019-05-17T01:12:18.908Z,0.00
2019-05-17T01:13:18.959Z,0.00
2019-05-17T01:14:18.869Z,0.00
2019-05-17T01:15:18.890Z,0.00
2019-05-17T01:16:18.861Z,0.00
2019-05-17T01:17:18.970Z,0.00
2019-05-17T01:18:18.830Z,0.00
2019-05-17T01:19:18.861Z,0.00
2019-05-17T01:20:18.811Z,0.00
2019-05-17T01:21:18.892Z,0.00
2019-05-17T01:22:18.803Z,0.00
2019-05-17T01:23:18.832Z,0.00
2019-05-17T01:24:18.775Z,0.00
2019-05-17T01:25:18.743Z,0.00
2019-05-17T01:26:18.834Z,0.00
2019-05-17T01:27:18.755Z,0.00
2019-05-17T01:28:19.795Z,0.00
2019-05-17T01:29:18.706Z,0.00
2019-05-17T01:30:18.696Z,0.00
2019-05-17T01:31:18.693Z,0.00
2019-05-17T01:32:18.804Z,0.00
2019-05-17T01:33:18.658Z,0.00
2019-05-17T01:34:18.679Z,0.00
2019-05-17T01:35:18.654Z,0.00
2019-05-17T01:36:18.713Z,0.00
2019-05-17T01:37:18.630Z,0.00
2019-05-17T01:38:18.651Z,0.00
2019-05-17T01:39:21.321Z,0.00
2019-05-17T01:40:18.692Z,0.00
2019-05-17T01:41:18.652Z,0.00
2019-05-17T01:42:18.587Z,0.00
2019-05-17T01:43:18.598Z,0.00
2019-05-17T01:44:18.533Z,0.00
2019-05-17T01:45:18.634Z,0.00
2019-05-17T01:46:19.626Z,0.00
2019-05-17T01:47:18.533Z,0.00
2019-05-17T01:48:18.535Z,0.00
2019-05-17T01:49:18.516Z,0.00
2019-05-17T01:50:18.580Z,0.00
2019-05-17T01:51:18.459Z,0.00
2019-05-17T01:52:18.547Z,0.00
2019-05-17T01:53:18.437Z,0.00
2019-05-17T01:54:19.467Z,0.00
2019-05-17T01:55:18.405Z,0.00
2019-05-17T01:56:18.479Z,0.00
2019-05-17T01:57:18.409Z,0.00
2019-05-17T01:58:18.409Z,0.00
2019-05-17T01:59:18.360Z,0.00
2019-05-17T02:00:18.450Z,0.00
2019-05-17T02:01:18.353Z,0.00
2019-05-17T02:02:18.343Z,0.00
2019-05-17T02:03:18.311Z,0.00
2019-05-17T02:04:19.345Z,0.00
2019-05-17T02:05:18.294Z,0.00
2019-05-17T02:06:18.353Z,0.00
2019-05-17T02:07:18.293Z,0.00
2019-05-17T02:08:18.294Z,0.00
2019-05-17T02:09:33.770Z,0.00
2019-05-17T02:10:19.235Z,0.00
2019-05-17T02:11:18.612Z,0.00
2019-05-17T02:12:18.272Z,0.00
2019-05-17T02:13:18.217Z,0.00
2019-05-17T02:14:18.296Z,0.00
2019-05-17T02:15:18.189Z,0.00
2019-05-17T02:16:18.228Z,0.00
2019-05-17T02:17:18.148Z,0.00
2019-05-17T02:18:18.160Z,0.00
2019-05-17T02:19:18.151Z,0.00
2019-05-17T02:20:18.199Z,0.00
2019-05-17T02:21:18.110Z,0.00
2019-05-17T02:22:18.141Z,0.00
2019-05-17T02:23:18.112Z,0.00
2019-05-17T02:24:18.172Z,0.00
2019-05-17T02:25:18.052Z,0.00
2019-05-17T02:26:18.123Z,0.00
2019-05-17T02:27:18.053Z,0.00
2019-05-17T02:28:18.092Z,0.00
2019-05-17T02:29:18.023Z,0.00
2019-05-17T02:30:18.096Z,0.00
2019-05-17T02:31:17.996Z,0.00
2019-05-17T02:32:18.027Z,0.00
2019-05-17T02:33:18.002Z,0.00
2019-05-17T02:34:17.977Z,0.00
2019-05-17T02:35:17.957Z,0.00
2019-05-17T02:36:17.998Z,0.00
2019-05-17T02:37:17.942Z,0.00
2019-05-17T02:38:17.969Z,0.00
2019-05-17T02:39:18.000Z,0.00
2019-05-17T02:40:17.902Z,0.00
2019-05-17T02:41:17.945Z,0.00
2019-05-17T02:42:17.880Z,0.00
2019-05-17T02:43:17.911Z,0.00
2019-05-17T02:44:17.861Z,0.00
2019-05-17T02:45:17.917Z,0.00
2019-05-17T02:46:17.832Z,0.00
2019-05-17T02:47:18.863Z,0.00
2019-05-17T02:48:17.834Z,0.00
2019-05-17T02:49:17.884Z,0.00
2019-05-17T02:50:18.865Z,0.00
2019-05-17T02:51:17.778Z,0.00
2019-05-17T02:52:18.805Z,0.00
2019-05-17T02:53:17.767Z,0.00
2019-05-17T02:54:17.819Z,0.00
2019-05-17T02:55:17.791Z,0.00
2019-05-17T02:56:17.728Z,0.00
2019-05-17T02:57:17.828Z,0.00
2019-05-17T02:58:17.718Z,0.00
2019-05-17T02:59:17.759Z,0.00
2019-05-17T03:00:17.670Z,0.00
2019-05-17T03:01:17.691Z,0.00
2019-05-17T03:02:17.651Z,0.00
2019-05-17T03:03:17.680Z,0.00
2019-05-17T03:04:17.622Z,0.00
2019-05-17T03:05:17.661Z,0.00
2019-05-17T03:06:17.620Z,0.00
2019-05-17T03:07:17.715Z,0.00
2019-05-17T03:08:17.623Z,0.00
2019-05-17T03:09:17.645Z,0.00
2019-05-17T03:10:23.596Z,0.00
2019-05-17T03:11:18.555Z,0.00
2019-05-17T03:12:17.537Z,0.00
2019-05-17T03:13:18.159Z,0.00
2019-05-17T03:14:17.535Z,0.00
2019-05-17T03:15:17.558Z,0.00
2019-05-17T03:16:17.490Z,0.00
2019-05-17T03:17:18.509Z,0.00
2019-05-17T03:18:17.479Z,0.00
2019-05-17T03:19:17.568Z,0.00
2019-05-17T03:20:17.437Z,0.00
2019-05-17T03:21:17.459Z,0.00
2019-05-17T03:22:17.428Z,0.00
2019-05-17T03:23:17.492Z,5.62
2019-05-17T03:24:17.420Z,5.62
2019-05-17T03:25:17.443Z,5.62
2019-05-17T03:26:17.382Z,5.62
2019-05-17T03:27:17.363Z,5.62
2019-05-17T03:28:17.442Z,5.62
2019-05-17T03:29:17.369Z,5.62
2019-05-17T03:30:18.893Z,5.62
2019-05-17T03:31:17.738Z,5.62
2019-05-17T03:32:18.017Z,5.62
2019-05-17T03:33:17.304Z,11.25
2019-05-17T03:34:17.975Z,11.25
2019-05-17T03:35:18.321Z,11.25
2019-05-17T03:36:18.009Z,11.25
2019-05-17T03:37:17.296Z,11.25
2019-05-17T03:38:17.237Z,16.88
2019-05-17T03:39:17.327Z,16.88
2019-05-17T03:40:55.444Z,16.88
2019-05-17T03:41:24.861Z,22.50
2019-05-17T03:42:18.203Z,22.50
2019-05-17T03:43:17.189Z,28.12
2019-05-17T03:44:17.192Z,28.12
2019-05-17T03:45:18.220Z,33.75
2019-05-17T03:46:17.152Z,33.75
2019-05-17T03:47:17.231Z,39.38
2019-05-17T03:48:17.153Z,45.00
2019-05-17T03:49:17.217Z,45.00
2019-05-17T03:50:17.103Z,50.62
2019-05-17T03:51:18.134Z,50.62
2019-05-17T03:52:17.085Z,56.25
2019-05-17T03:53:17.146Z,56.25
2019-05-17T03:54:17.076Z,61.88
2019-05-17T03:55:17.093Z,61.88
2019-05-17T03:56:17.034Z,61.88
2019-05-17T03:57:17.118Z,67.50
2019-05-17T03:58:17.011Z,67.50
2019-05-17T03:59:17.027Z,73.12
2019-05-17T04:00:16.996Z,78.75
2019-05-17T04:01:18.007Z,84.38
2019-05-17T04:02:16.979Z,95.62
2019-05-17T04:03:17.018Z,106.88
2019-05-17T04:04:16.958Z,106.88
2019-05-17T04:05:16.960Z,106.88
2019-05-17T04:06:16.931Z,101.25
2019-05-17T04:07:16.992Z,101.25
2019-05-17T04:08:16.904Z,106.88
2019-05-17T04:09:16.986Z,106.88
2019-05-17T04:10:16.888Z,106.88
2019-05-17T04:11:26.029Z,106.88
2019-05-17T04:12:17.853Z,101.25
2019-05-17T04:13:16.907Z,101.25
2019-05-17T04:14:16.854Z,106.88
2019-05-17T04:15:16.815Z,106.88
2019-05-17T04:16:16.808Z,106.88
2019-05-17T04:17:16.890Z,106.88
2019-05-17T04:18:16.788Z,106.88
2019-05-17T04:19:16.857Z,106.88
2019-05-17T04:20:16.766Z,106.88
2019-05-17T04:21:16.854Z,106.88
2019-05-17T04:22:16.739Z,101.25
2019-05-17T04:23:16.780Z,101.25
2019-05-17T04:24:16.738Z,101.25
2019-05-17T04:25:16.719Z,106.88
2019-05-17T04:26:16.786Z,118.12
2019-05-17T04:27:16.681Z,129.38
2019-05-17T04:28:16.709Z,135.00
2019-05-17T04:29:16.663Z,135.00
2019-05-17T04:30:17.721Z,129.38
2019-05-17T04:31:16.732Z,123.75
2019-05-17T04:32:16.650Z,129.38
2019-05-17T04:33:16.652Z,135.00
2019-05-17T04:34:16.624Z,146.25
2019-05-17T04:35:16.643Z,151.88
2019-05-17T04:36:16.586Z,157.50
2019-05-17T04:37:16.638Z,157.50
2019-05-17T04:38:16.561Z,157.50
2019-05-17T04:39:16.577Z,157.50
2019-05-17T04:40:16.552Z,157.50
2019-05-17T04:41:34.548Z,157.50
2019-05-17T04:42:17.597Z,163.12
2019-05-17T04:43:16.508Z,168.75
2019-05-17T04:44:16.510Z,174.38
2019-05-17T04:45:16.489Z,174.38
2019-05-17T04:46:16.548Z,180.00
2019-05-17T04:47:16.510Z,180.00
2019-05-17T04:48:16.444Z,185.62
2019-05-17T04:49:16.450Z,180.00
2019-05-17T04:50:16.444Z,180.00
2019-05-17T04:51:16.483Z,185.62
2019-05-17T04:52:16.392Z,191.25
2019-05-17T04:53:16.395Z,202.50
2019-05-17T04:54:16.492Z,213.75
2019-05-17T04:55:16.373Z,225.00
2019-05-17T04:56:16.423Z,241.88
2019-05-17T04:57:16.359Z,253.12
2019-05-17T04:58:16.324Z,264.38
2019-05-17T04:59:16.342Z,270.00
2019-05-17T05:00:16.335Z,275.62
2019-05-17T05:01:16.306Z,275.62
2019-05-17T05:02:16.330Z,275.62
2019-05-17T05:03:16.308Z,270.00
2019-05-17T05:04:16.268Z,270.00
2019-05-17T05:05:16.288Z,270.00
2019-05-17T05:06:16.242Z,270.00
2019-05-17T05:07:17.313Z,275.62
2019-05-17T05:08:16.220Z,281.25
2019-05-17T05:09:16.211Z,286.88
2019-05-17T05:10:16.321Z,292.50
2019-05-17T05:11:16.184Z,281.25
2019-05-17T05:12:16.214Z,270.00
2019-05-17T05:13:16.164Z,258.75
2019-05-17T05:14:16.142Z,247.50
2019-05-17T05:15:16.273Z,247.50
2019-05-17T05:16:16.134Z,241.88
2019-05-17T05:17:16.145Z,230.62
2019-05-17T05:18:16.105Z,241.88
2019-05-17T05:19:16.107Z,275.62
2019-05-17T05:20:16.106Z,303.75
2019-05-17T05:21:16.125Z,326.25
2019-05-17T05:22:17.564Z,343.12
2019-05-17T05:23:16.165Z,371.25
2019-05-17T05:24:16.037Z,393.75
2019-05-17T05:25:16.139Z,416.25
2019-05-17T05:26:16.017Z,427.50
2019-05-17T05:27:16.038Z,438.75
2019-05-17T05:28:15.988Z,455.62
2019-05-17T05:29:17.088Z,450.00
2019-05-17T05:30:15.989Z,444.38
2019-05-17T05:31:16.033Z,438.75
2019-05-17T05:32:15.940Z,438.75
2019-05-17T05:33:16.042Z,444.38
2019-05-17T05:34:15.927Z,466.88
2019-05-17T05:35:15.925Z,455.62
2019-05-17T05:36:15.960Z,433.12
2019-05-17T05:37:15.893Z,433.12
2019-05-17T05:38:15.984Z,461.25
2019-05-17T05:39:15.863Z,506.25
2019-05-17T05:40:15.854Z,511.88
2019-05-17T05:41:15.866Z,517.50
2019-05-17T05:42:15.855Z,540.00
2019-05-17T05:43:15.858Z,579.38
2019-05-17T05:44:16.915Z,635.62
2019-05-17T05:45:15.787Z,663.75
2019-05-17T05:46:15.868Z,686.25
2019-05-17T05:47:15.770Z,708.75
2019-05-17T05:48:17.808Z,742.50
2019-05-17T05:49:15.758Z,765.00
2019-05-17T05:50:17.852Z,736.88
2019-05-17T05:51:15.740Z,731.25
2019-05-17T05:52:15.730Z,708.75
2019-05-17T05:53:15.713Z,663.75
2019-05-17T05:54:15.770Z,708.75
2019-05-17T05:55:15.683Z,736.88
2019-05-17T05:56:15.691Z,686.25
2019-05-17T05:57:15.683Z,630.00
2019-05-17T05:58:15.632Z,607.50
2019-05-17T05:59:15.715Z,590.62
2019-05-17T06:00:15.625Z,534.38
2019-05-17T06:01:15.652Z,506.25
2019-05-17T06:02:15.895Z,506.25
2019-05-17T06:03:15.602Z,489.38
2019-05-17T06:04:15.656Z,506.25
2019-05-17T06:05:17.337Z,551.25
2019-05-17T06:06:15.578Z,630.00
2019-05-17T06:07:15.658Z,618.75
2019-05-17T06:08:15.664Z,545.62
2019-05-17T06:09:15.588Z,506.25
2019-05-17T06:10:15.639Z,528.75
2019-05-17T06:11:15.681Z,466.88
2019-05-17T06:12:23.648Z,483.75
2019-05-17T06:13:16.470Z,427.50
2019-05-17T06:14:15.531Z,337.50
2019-05-17T06:15:15.458Z,337.50
2019-05-17T06:16:15.611Z,337.50
2019-05-17T06:17:15.463Z,309.38
2019-05-17T06:18:15.503Z,343.12
2019-05-17T06:19:15.537Z,348.75
2019-05-17T06:20:15.434Z,320.62
2019-05-17T06:21:15.404Z,360.00
2019-05-17T06:22:15.475Z,421.88
2019-05-17T06:23:15.365Z,393.75
2019-05-17T06:24:15.416Z,455.62
2019-05-17T06:25:15.893Z,562.50
2019-05-17T06:26:18.105Z,573.75
2019-05-17T06:27:15.317Z,506.25
2019-05-17T06:28:15.388Z,450.00
2019-05-17T06:29:15.298Z,455.62
2019-05-17T06:30:15.320Z,528.75
2019-05-17T06:31:15.339Z,562.50
2019-05-17T06:32:15.270Z,517.50
2019-05-17T06:33:27.144Z,455.62
2019-05-17T06:34:16.233Z,455.62
2019-05-17T06:35:15.251Z,461.25
2019-05-17T06:36:15.232Z,461.25
2019-05-17T06:37:16.684Z,523.12
2019-05-17T06:38:15.264Z,556.88
2019-05-17T06:39:15.177Z,517.50
2019-05-17T06:40:15.205Z,438.75
2019-05-17T06:41:15.184Z,433.12
2019-05-17T06:42:15.145Z,438.75
2019-05-17T06:43:15.145Z,421.88
2019-05-17T06:44:16.197Z,376.88
2019-05-17T06:45:15.109Z,410.62
2019-05-17T06:46:15.222Z,483.75
2019-05-17T06:47:15.127Z,551.25
2019-05-17T06:48:15.085Z,613.12
2019-05-17T06:49:15.109Z,630.00
2019-05-17T06:50:15.049Z,646.88
2019-05-17T06:51:15.150Z,680.62
2019-05-17T06:52:15.160Z,686.25
2019-05-17T06:53:15.021Z,658.12
2019-05-17T06:54:15.051Z,601.88
2019-05-17T06:55:15.001Z,551.25
2019-05-17T06:56:15.083Z,540.00
2019-05-17T06:57:15.002Z,528.75
2019-05-17T06:58:15.024Z,551.25
2019-05-17T06:59:14.973Z,590.62
2019-05-17T07:00:20.657Z,607.50
2019-05-17T07:01:15.925Z,596.25
2019-05-17T07:02:15.047Z,579.38
2019-05-17T07:03:14.905Z,551.25
2019-05-17T07:04:14.927Z,506.25
2019-05-17T07:05:14.887Z,461.25
2019-05-17T07:06:14.978Z,450.00
2019-05-17T07:07:14.877Z,433.12
2019-05-17T07:08:14.848Z,421.88
2019-05-17T07:09:14.869Z,427.50
2019-05-17T07:10:14.830Z,455.62
2019-05-17T07:11:14.900Z,500.62
2019-05-17T07:12:14.809Z,573.75
2019-05-17T07:13:14.808Z,601.88
2019-05-17T07:14:14.813Z,630.00
2019-05-17T07:15:14.771Z,646.88
2019-05-17T07:16:14.855Z,675.00
2019-05-17T07:17:14.772Z,703.12
2019-05-17T07:18:14.742Z,793.12
2019-05-17T07:19:14.723Z,843.75
2019-05-17T07:20:14.906Z,849.38
2019-05-17T07:21:14.686Z,855.00
2019-05-17T07:22:15.715Z,916.88
2019-05-17T07:23:14.677Z,916.88
2019-05-17T07:24:14.700Z,821.25
2019-05-17T07:25:14.657Z,900.00
2019-05-17T07:26:14.728Z,1102.50
2019-05-17T07:27:14.696Z,1153.12
2019-05-17T07:28:14.661Z,1119.38
2019-05-17T07:29:14.610Z,1068.75
2019-05-17T07:30:14.699Z,1074.38
2019-05-17T07:31:14.599Z,1108.12
2019-05-17T07:32:14.702Z,1243.12
2019-05-17T07:33:14.556Z,1440.00
2019-05-17T07:34:14.563Z,1563.75
2019-05-17T07:35:14.542Z,1586.25
2019-05-17T07:36:14.602Z,1462.50
2019-05-17T07:37:14.533Z,1372.50
2019-05-17T07:38:14.533Z,1333.12
2019-05-17T07:39:14.515Z,1248.75
2019-05-17T07:40:14.484Z,1198.12
2019-05-17T07:41:14.555Z,1091.25
2019-05-17T07:42:14.486Z,1108.12
2019-05-17T07:43:15.042Z,1186.88
2019-05-17T07:44:14.437Z,1434.38
2019-05-17T07:45:14.516Z,1423.12
2019-05-17T07:46:14.417Z,1378.12
2019-05-17T07:47:14.488Z,1400.62
2019-05-17T07:48:14.392Z,1361.25
2019-05-17T07:49:14.510Z,1383.75
2019-05-17T07:50:14.461Z,1490.62
2019-05-17T07:51:14.361Z,1490.62
2019-05-17T07:52:14.442Z,1456.88
2019-05-17T07:53:14.351Z,1406.25
2019-05-17T07:54:14.432Z,1316.25
2019-05-17T07:55:14.403Z,1226.25
2019-05-17T07:56:14.316Z,1164.38
2019-05-17T07:57:14.355Z,1136.25
2019-05-17T07:58:14.294Z,1108.12
2019-05-17T07:59:14.375Z,1265.62
2019-05-17T08:00:14.264Z,1456.88
2019-05-17T08:01:14.305Z,1929.38
2019-05-17T08:02:14.226Z,2025.00
2019-05-17T08:03:16.336Z,1845.00
2019-05-17T08:04:14.207Z,1698.75
2019-05-17T08:05:14.278Z,1777.50
2019-05-17T08:06:14.179Z,2441.25
2019-05-17T08:07:14.213Z,2610.00
2019-05-17T08:08:14.192Z,2626.88
2019-05-17T08:09:14.394Z,2626.88
2019-05-17T08:10:14.149Z,2542.50
2019-05-17T08:11:14.154Z,2143.12
2019-05-17T08:12:14.131Z,2233.12
2019-05-17T08:13:25.686Z,1901.25
2019-05-17T08:14:26.694Z,1586.25
2019-05-17T08:15:15.093Z,1513.12
2019-05-17T08:16:14.083Z,1389.38
2019-05-17T08:17:14.074Z,1170.00
2019-05-17T08:18:14.127Z,916.88
2019-05-17T08:19:14.048Z,714.38
2019-05-17T08:20:14.105Z,601.88
2019-05-17T08:21:14.042Z,523.12
2019-05-17T08:22:14.051Z,478.12
2019-05-17T08:23:14.017Z,455.62
2019-05-17T08:24:14.078Z,461.25
2019-05-17T08:25:13.989Z,495.00
2019-05-17T08:26:14.029Z,523.12
2019-05-17T08:27:14.089Z,534.38
2019-05-17T08:28:13.972Z,528.75
2019-05-17T08:29:14.021Z,523.12
2019-05-17T08:30:13.932Z,523.12
2019-05-17T08:31:13.972Z,534.38
2019-05-17T08:32:13.911Z,551.25
2019-05-17T08:33:14.962Z,579.38
2019-05-17T08:34:13.883Z,596.25
2019-05-17T08:35:14.943Z,590.62
2019-05-17T08:36:13.892Z,579.38
2019-05-17T08:37:13.846Z,562.50
2019-05-17T08:38:13.846Z,545.62
2019-05-17T08:39:13.897Z,534.38
2019-05-17T08:40:15.366Z,523.12
2019-05-17T08:41:14.850Z,523.12
2019-05-17T08:42:13.800Z,523.12
2019-05-17T08:43:13.918Z,506.25
2019-05-17T08:44:14.023Z,483.75
2019-05-17T08:45:13.802Z,450.00
2019-05-17T08:46:13.740Z,416.25
2019-05-17T08:47:13.842Z,393.75
2019-05-17T08:48:13.742Z,376.88
2019-05-17T08:49:13.786Z,371.25
2019-05-17T08:50:13.703Z,376.88
2019-05-17T08:51:13.711Z,388.12
2019-05-17T08:52:13.683Z,393.75
2019-05-17T08:53:13.686Z,410.62
2019-05-17T08:54:13.675Z,438.75
2019-05-17T08:55:13.687Z,472.50
2019-05-17T08:56:13.635Z,506.25
2019-05-17T08:57:13.726Z,534.38
2019-05-17T08:58:13.637Z,540.00
2019-05-17T08:59:15.707Z,545.62
2019-05-17T09:00:13.598Z,562.50
2019-05-17T09:01:13.698Z,579.38
2019-05-17T09:02:13.596Z,556.88
2019-05-17T09:03:13.670Z,517.50
2019-05-17T09:04:13.549Z,461.25
2019-05-17T09:05:13.581Z,450.00
2019-05-17T09:06:13.533Z,545.62
2019-05-17T09:07:13.601Z,669.38
2019-05-17T09:08:13.522Z,781.88
2019-05-17T09:09:13.662Z,855.00
2019-05-17T09:10:13.505Z,939.38
2019-05-17T09:11:13.473Z,1035.00
2019-05-17T09:12:13.555Z,1108.12
2019-05-17T09:13:14.757Z,1164.38
2019-05-17T09:14:13.466Z,1198.12
2019-05-17T09:15:14.476Z,1220.62
2019-05-17T09:16:13.425Z,1220.62
2019-05-17T09:17:13.488Z,1175.62
2019-05-17T09:18:13.388Z,1125.00
2019-05-17T09:19:14.488Z,1046.25
2019-05-17T09:20:13.440Z,950.62
2019-05-17T09:21:13.460Z,849.38
2019-05-17T09:22:13.348Z,781.88
2019-05-17T09:23:13.399Z,759.38
2019-05-17T09:24:13.341Z,725.62
2019-05-17T09:25:18.920Z,669.38
2019-05-17T09:26:14.312Z,601.88
2019-05-17T09:27:13.361Z,556.88
2019-05-17T09:28:13.284Z,528.75
2019-05-17T09:29:13.342Z,500.62
2019-05-17T09:30:13.263Z,478.12
2019-05-17T09:31:13.338Z,466.88
2019-05-17T09:32:13.234Z,450.00
2019-05-17T09:33:13.275Z,438.75
2019-05-17T09:34:13.235Z,438.75
2019-05-17T09:35:13.307Z,433.12
2019-05-17T09:36:13.191Z,438.75
2019-05-17T09:37:16.822Z,472.50
2019-05-17T09:38:14.170Z,517.50
2019-05-17T09:39:13.239Z,551.25
2019-05-17T09:40:13.139Z,596.25
2019-05-17T09:41:13.142Z,641.25
2019-05-17T09:42:13.123Z,663.75
2019-05-17T09:43:14.996Z,675.00
2019-05-17T09:44:16.302Z,691.88
2019-05-17T09:45:13.191Z,731.25
2019-05-17T09:46:13.078Z,776.25
2019-05-17T09:47:13.065Z,804.38
2019-05-17T09:48:13.099Z,826.88
2019-05-17T09:49:13.053Z,832.50
2019-05-17T09:50:13.134Z,832.50
2019-05-17T09:51:13.014Z,838.12
2019-05-17T09:52:13.016Z,843.75
2019-05-17T09:53:13.000Z,843.75
2019-05-17T09:54:13.050Z,826.88
2019-05-17T09:55:12.978Z,804.38
2019-05-17T09:56:14.676Z,810.00
2019-05-17T09:57:13.768Z,832.50
2019-05-17T09:58:15.038Z,855.00
2019-05-17T09:59:12.958Z,855.00
2019-05-17T10:00:13.000Z,832.50
2019-05-17T10:01:12.900Z,821.25
2019-05-17T10:02:12.954Z,832.50
2019-05-17T10:03:12.882Z,821.25
2019-05-17T10:04:13.851Z,815.62
2019-05-17T10:05:12.853Z,832.50
2019-05-17T10:06:13.944Z,849.38
2019-05-17T10:07:12.845Z,855.00
2019-05-17T10:08:12.806Z,849.38
2019-05-17T10:09:12.836Z,855.00
2019-05-17T10:10:12.895Z,866.25
2019-05-17T10:11:12.793Z,883.12
2019-05-17T10:12:12.829Z,900.00
2019-05-17T10:13:12.769Z,877.50
2019-05-17T10:14:24.767Z,826.88
2019-05-17T10:15:13.748Z,770.62
2019-05-17T10:16:12.803Z,691.88
2019-05-17T10:17:12.719Z,607.50
2019-05-17T10:18:12.729Z,534.38
2019-05-17T10:19:12.690Z,489.38
2019-05-17T10:20:12.715Z,466.88
2019-05-17T10:21:12.671Z,455.62
2019-05-17T10:22:12.701Z,461.25
2019-05-17T10:23:12.642Z,466.88
2019-05-17T10:24:12.644Z,472.50
2019-05-17T10:25:12.632Z,495.00
2019-05-17T10:26:13.704Z,523.12
2019-05-17T10:27:14.589Z,545.62
2019-05-17T10:28:12.615Z,579.38
2019-05-17T10:29:12.566Z,630.00
2019-05-17T10:30:12.577Z,680.62
2019-05-17T10:31:12.691Z,736.88
2019-05-17T10:32:12.549Z,787.50
2019-05-17T10:33:12.559Z,832.50
2019-05-17T10:34:12.519Z,849.38
2019-05-17T10:35:12.519Z,798.75
2019-05-17T10:36:12.490Z,748.12
2019-05-17T10:37:14.589Z,714.38
2019-05-17T10:38:12.470Z,736.88
2019-05-17T10:39:12.571Z,753.75
2019-05-17T10:40:12.461Z,748.12
2019-05-17T10:41:12.433Z,748.12
2019-05-17T10:42:12.473Z,759.38
2019-05-17T10:43:12.425Z,776.25
2019-05-17T10:44:13.423Z,793.12
2019-05-17T10:45:12.391Z,821.25
2019-05-17T10:46:12.385Z,860.62
2019-05-17T10:47:12.364Z,916.88
2019-05-17T10:48:12.385Z,995.62
2019-05-17T10:49:12.358Z,1108.12
2019-05-17T10:50:12.468Z,1254.38
2019-05-17T10:51:13.499Z,1428.75
2019-05-17T10:52:12.348Z,1434.38
2019-05-17T10:53:12.310Z,1361.25
2019-05-17T10:54:12.379Z,1243.12
2019-05-17T10:55:12.299Z,1158.75
2019-05-17T10:56:12.319Z,1113.75
2019-05-17T10:57:12.290Z,1102.50
2019-05-17T10:58:12.241Z,1096.88
2019-05-17T10:59:12.331Z,1063.12
2019-05-17T11:00:12.224Z,1023.75
2019-05-17T11:01:12.273Z,967.50
2019-05-17T11:02:12.185Z,922.50
2019-05-17T11:03:12.205Z,888.75
2019-05-17T11:04:12.176Z,843.75
2019-05-17T11:05:12.275Z,753.75
2019-05-17T11:06:12.138Z,703.12
2019-05-17T11:07:12.167Z,675.00
2019-05-17T11:08:12.146Z,691.88
2019-05-17T11:09:12.109Z,697.50
2019-05-17T11:10:12.471Z,720.00
2019-05-17T11:11:12.099Z,748.12
2019-05-17T11:12:12.108Z,810.00
2019-05-17T11:13:12.079Z,871.88
2019-05-17T11:14:12.052Z,900.00
2019-05-17T11:15:12.337Z,888.75
2019-05-17T11:16:12.021Z,871.88
2019-05-17T11:17:12.051Z,838.12
2019-05-17T11:18:12.002Z,804.38
2019-05-17T11:19:11.992Z,765.00
2019-05-17T11:20:12.107Z,731.25
2019-05-17T11:21:11.974Z,714.38
2019-05-17T11:22:11.994Z,714.38
2019-05-17T11:23:11.946Z,736.88
2019-05-17T11:24:11.943Z,765.00
2019-05-17T11:25:11.948Z,765.00
2019-05-17T11:26:11.958Z,770.62
2019-05-17T11:27:11.896Z,787.50
2019-05-17T11:28:11.899Z,798.75
2019-05-17T11:29:11.888Z,804.38
2019-05-17T11:30:12.005Z,793.12
2019-05-17T11:31:11.848Z,787.50
2019-05-17T11:32:11.871Z,798.75
2019-05-17T11:33:11.851Z,798.75
2019-05-17T11:34:11.911Z,781.88
2019-05-17T11:35:11.913Z,765.00
2019-05-17T11:36:11.802Z,759.38
2019-05-17T11:37:11.813Z,753.75
2019-05-17T11:38:11.773Z,742.50
2019-05-17T11:39:11.864Z,742.50
2019-05-17T11:40:11.774Z,759.38
2019-05-17T11:41:21.024Z,765.00
2019-05-17T11:42:12.735Z,770.62
2019-05-17T11:43:11.832Z,770.62
2019-05-17T11:44:11.718Z,781.88
2019-05-17T11:45:26.741Z,804.38
2019-05-17T11:46:12.678Z,826.88
2019-05-17T11:47:11.679Z,883.12
2019-05-17T11:48:11.659Z,956.25
2019-05-17T11:49:11.732Z,1057.50
2019-05-17T11:50:11.662Z,1130.62
2019-05-17T11:51:11.625Z,1181.25
2019-05-17T11:52:11.620Z,1271.25
2019-05-17T11:53:11.704Z,1361.25
2019-05-17T11:54:11.592Z,1411.88
2019-05-17T11:55:11.683Z,1445.62
2019-05-17T11:56:11.564Z,1451.25
2019-05-17T11:57:12.434Z,1445.62
2019-05-17T11:58:11.643Z,1400.62
2019-05-17T11:59:11.525Z,1344.38
2019-05-17T12:00:11.626Z,1305.00
2019-05-17T12:01:11.502Z,1288.12
2019-05-17T12:02:11.496Z,1288.12
2019-05-17T12:03:11.473Z,1226.25
2019-05-17T12:04:11.538Z,1153.12
2019-05-17T12:05:11.478Z,1113.75
2019-05-17T12:06:11.491Z,1068.75
2019-05-17T12:07:11.429Z,1035.00
2019-05-17T12:08:11.534Z,1029.38
2019-05-17T12:09:11.410Z,1006.88
2019-05-17T12:10:11.515Z,990.00
2019-05-17T12:11:11.381Z,973.12
2019-05-17T12:12:11.392Z,961.88
2019-05-17T12:13:11.466Z,939.38
2019-05-17T12:14:11.353Z,956.25
2019-05-17T12:15:11.475Z,1001.25
2019-05-17T12:16:11.326Z,1029.38
2019-05-17T12:17:11.335Z,1040.62
2019-05-17T12:18:11.306Z,1035.00
2019-05-17T12:19:11.385Z,995.62
2019-05-17T12:20:11.308Z,961.88
2019-05-17T12:21:11.310Z,961.88
2019-05-17T12:22:11.273Z,967.50
2019-05-17T12:23:11.349Z,978.75
2019-05-17T12:24:11.309Z,990.00
2019-05-17T12:25:11.253Z,1006.88
2019-05-17T12:26:11.251Z,1006.88
2019-05-17T12:27:11.200Z,995.62
2019-05-17T12:28:11.293Z,1001.25
2019-05-17T12:29:12.281Z,1040.62
2019-05-17T12:30:11.196Z,1074.38
2019-05-17T12:31:11.230Z,1085.62
2019-05-17T12:32:16.526Z,1074.38
2019-05-17T12:33:13.174Z,1063.12
2019-05-17T12:34:11.134Z,1051.88
2019-05-17T12:35:11.166Z,1006.88
2019-05-17T12:36:11.125Z,961.88
2019-05-17T12:37:11.104Z,905.62
2019-05-17T12:38:11.080Z,855.00
2019-05-17T12:39:11.143Z,860.62